Time;durP1;ratioP1;P1;durP2;ratioP2;P2;SDS_P1;SDS_P2;PMS_P1;PMS_P2;Temp;Humidity;BMP_temperature;BMP_pressure;BME280_temperature;BME280_humidity;BME280_pressure;Samples;Min_cycle;Max_cycle;Signal;HPM_P1;HPM_P2
2022/06/21 00:01:00;;;;;;;;;;;;;;;-142.75;100.00;77428.63;5072331;28;19913;-70
2022/06/21 00:03:26;;;;;;;;;;;;;;;-142.75;100.00;77438.47;5072201;28;19913;-70
2022/06/21 00:05:53;;;;;;;;;;;;;;;-142.75;100.00;77440.44;5072322;28;19958;-70
2022/06/21 00:08:25;;;;;;;;;;;;;;;-142.75;100.00;77440.44;5072039;28;19969;-70
2022/06/21 00:10:51;;;;;;;;;;;;;;;-142.75;100.00;77436.50;5072155;28;19962;-70
2022/06/21 00:13:19;;;;;;;;;;;;;;;-142.75;100.00;77440.44;5072342;28;19912;-70
2022/06/21 00:15:46;;;;;;;;;;;;;;;-142.75;100.00;77428.63;5072209;28;20017;-70
2022/06/21 00:18:12;;;;;;;;;;;;;;;-142.75;100.00;77428.63;5071840;28;19927;-70
2022/06/21 00:20:37;;;;;;;;;;;;;;;-142.75;100.00;77430.59;5072136;28;19912;-70
2022/06/21 00:23:03;;;;;;;;;;;;;;;-142.75;100.00;77418.78;5071956;28;19920;-70
2022/06/21 00:25:28;;;;;;;;;;;;;;;-142.75;100.00;77420.75;5072190;28;19913;-70
2022/06/21 00:27:54;;;;;;;;;;;;;;;-142.75;100.00;77420.75;5071850;28;20033;-70
2022/06/21 00:30:20;;;;;;;;;;;;;;;-142.75;100.00;77412.88;5072047;28;20271;-70
2022/06/21 00:32:47;;;;;;;;;;;;;;;-142.75;100.00;77408.94;5071865;28;20069;-70
2022/06/21 00:35:16;;;;;;;;;;;;;;;-142.75;100.00;77416.81;5072083;28;19912;-70
2022/06/21 00:37:41;;;;;;;;;;;;;;;-142.75;100.00;77416.81;5072049;28;19966;-70
2022/06/21 00:40:30;;;;;;;;;;;;;;;-142.75;100.00;77422.72;5071841;28;19916;-70
2022/06/21 00:43:10;;;;;;;;;;;;;;;-142.75;100.00;77410.91;5066200;28;19923;-70
2022/06/21 00:45:37;;;;;;;;;;;;;;;-142.75;100.00;77405.00;5071965;28;19916;-70
2022/06/21 00:48:10;;;;;;;;;;;;;;;-142.75;100.00;77424.69;5071626;28;20328;-69
2022/06/21 00:50:37;;;;;;;;;;;;;;;-142.75;100.00;77418.78;5071749;28;19923;-70
2022/06/21 00:53:06;;;;;;;;;;;;;;;-142.75;100.00;77420.75;5071873;28;20297;-70
2022/06/21 00:55:41;;;;;;;;;;;;;;;-142.75;100.00;77416.81;5070504;28;19912;-70
2022/06/21 00:58:08;;;;;;;;;;;;;;;-142.75;100.00;77420.75;5071531;28;19913;-70
2022/06/21 01:00:35;;;;;;;;;;;;;;;-142.75;100.00;77408.94;5071731;28;19912;-70
2022/06/21 01:03:04;;;;;;;;;;;;;;;-142.75;100.00;77399.09;5071738;28;19923;-69
2022/06/21 01:05:33;;;;;;;;;;;;;;;-142.75;100.00;77389.25;5071771;28;19912;-69
2022/06/21 01:07:58;;;;;;;;;;;;;;;-142.75;100.00;77389.25;5071378;28;19916;-70
2022/06/21 01:10:26;;;;;;;;;;;;;;;-142.75;100.00;77385.31;5071653;28;20504;-69
2022/06/21 01:12:54;;;;;;;;;;;;;;;-142.75;100.00;77397.13;5071655;28;20007;-70
2022/06/21 01:15:21;;;;;;;;;;;;;;;-142.75;100.00;77401.06;5071737;28;20003;-70
2022/06/21 01:17:48;;;;;;;;;;;;;;;-142.75;100.00;77393.19;5071457;28;19947;-70
2022/06/21 01:20:22;;;;;;;;;;;;;;;-142.75;100.00;77399.09;5071462;28;19959;-70
2022/06/21 01:23:00;;;;;;;;;;;;;;;-142.75;100.00;77401.06;5071625;28;20058;-70
2022/06/21 01:25:44;;;;;;;;;;;;;;;-142.75;100.00;77399.09;5071637;28;19950;-70
2022/06/21 01:28:10;;;;;;;;;;;;;;;-142.75;100.00;77401.06;5071199;28;19916;-70
2022/06/21 01:30:36;;;;;;;;;;;;;;;-142.75;100.00;77410.91;5070204;28;20339;-70
2022/06/21 01:33:02;;;;;;;;;;;;;;;-142.75;100.00;77408.94;5071339;28;19969;-70
2022/06/21 01:35:35;;;;;;;;;;;;;;;-142.75;100.00;77416.81;5072169;28;20007;-69
2022/06/21 01:38:03;;;;;;;;;;;;;;;-142.75;100.00;77414.84;5074891;28;20325;-69
2022/06/21 01:40:31;;;;;;;;;;;;;;;-142.75;100.00;77412.88;5074934;28;19916;-70
2022/06/21 01:42:59;;;;;;;;;;;;;;;-142.75;100.00;77412.88;5074949;28;19913;-70
2022/06/21 01:45:26;;;;;;;;;;;;;;;-142.75;100.00;77418.78;5074840;28;20397;-70
2022/06/21 01:47:56;;;;;;;;;;;;;;;-142.75;100.00;77424.69;5074575;28;20267;-67
2022/06/21 01:50:22;;;;;;;;;;;;;;;-142.75;100.00;77420.75;5074650;28;20301;-69
2022/06/21 01:52:48;;;;;;;;;;;;;;;-142.75;100.00;77414.84;5074709;28;19917;-70
2022/06/21 01:55:17;;;;;;;;;;;;;;;-142.75;100.00;77416.81;5074702;28;19958;-70
2022/06/21 01:57:42;;;;;;;;;;;;;;;-142.75;100.00;77420.75;5073182;28;19924;-67
2022/06/21 02:00:08;;;;;;;;;;;;;;;-142.75;100.00;77420.75;5074306;28;20063;-70
2022/06/21 02:02:44;;;;;;;;;;;;;;;-142.75;100.00;77412.88;5073251;28;20015;-70
2022/06/21 02:05:13;;;;;;;;;;;;;;;-142.75;100.00;77422.72;5073297;28;19920;-70
2022/06/21 02:07:42;;;;;;;;;;;;;;;-142.75;100.00;77424.69;5074448;28;19912;-70
2022/06/21 02:10:07;;;;;;;;;;;;;;;-142.75;100.00;77440.44;5074191;28;19913;-70
2022/06/21 02:12:33;;;;;;;;;;;;;;;-142.75;100.00;77442.41;5074244;28;20020;-70
2022/06/21 02:15:00;;;;;;;;;;;;;;;-142.75;100.00;77448.34;5074378;28;19916;-69
2022/06/21 02:17:29;;;;;;;;;;;;;;;-142.75;100.00;77460.13;5074249;28;19923;-69
2022/06/21 02:20:04;;;;;;;;;;;;;;;-142.75;100.00;77462.13;5073998;28;19916;-69
2022/06/21 02:22:30;;;;;;;;;;;;;;;-142.75;100.00;77462.13;5072998;28;19939;-70
2022/06/21 02:24:55;;;;;;;;;;;;;;;-142.75;100.00;77460.13;5072900;28;19920;-70
2022/06/21 02:27:23;;;;;;;;;;;;;;;-142.75;100.00;77464.09;5074005;28;19970;-70
2022/06/21 02:29:52;;;;;;;;;;;;;;;-142.75;100.00;77464.09;5073832;28;20008;-70
2022/06/21 02:32:24;;;;;;;;;;;;;;;-142.75;100.00;77479.84;5073820;28;19916;-70
2022/06/21 02:34:51;;;;;;;;;;;;;;;-142.75;100.00;77475.91;5074029;28;20294;-70
2022/06/21 02:37:16;;;;;;;;;;;;;;;-142.75;100.00;77473.94;5073934;28;19919;-70
2022/06/21 02:39:43;;;;;;;;;;;;;;;-142.75;100.00;77473.94;5073505;28;19917;-70
2022/06/21 02:42:20;;;;;;;;;;;;;;;-142.75;100.00;77487.72;5073760;28;19952;-70
2022/06/21 02:44:51;;;;;;;;;;;;;;;-142.75;100.00;77489.69;5073731;28;19999;-70
2022/06/21 02:47:20;;;;;;;;;;;;;;;-142.75;100.00;77511.34;5073630;28;20366;-70
2022/06/21 02:49:47;;;;;;;;;;;;;;;-142.75;100.00;77513.31;5073353;28;19926;-70
2022/06/21 02:52:16;;;;;;;;;;;;;;;-142.75;100.00;77509.38;5073279;28;19947;-70
2022/06/21 02:54:47;;;;;;;;;;;;;;;-142.75;100.00;77519.22;5073602;28;20445;-70
2022/06/21 02:57:26;;;;;;;;;;;;;;;-142.75;100.00;77521.19;5073510;28;19963;-70
2022/06/21 02:59:53;;;;;;;;;;;;;;;-142.75;100.00;77515.28;5071891;28;19912;-69
2022/06/21 03:02:21;;;;;;;;;;;;;;;-142.75;100.00;77521.19;5073374;28;19912;-70
2022/06/21 03:04:49;;;;;;;;;;;;;;;-142.75;100.00;77523.16;5073235;28;19913;-69
2022/06/21 03:07:16;;;;;;;;;;;;;;;-142.75;100.00;77531.03;5073414;28;19959;-71
2022/06/21 03:09:42;;;;;;;;;;;;;;;-142.75;100.00;77529.06;5072964;28;20386;-69
2022/06/21 03:12:08;;;;;;;;;;;;;;;-142.75;100.00;77525.13;5073028;28;19916;-69
2022/06/21 03:14:34;;;;;;;;;;;;;;;-142.75;100.00;77517.25;5073105;28;19912;-69
2022/06/21 03:17:01;;;;;;;;;;;;;;;-142.75;100.00;77509.38;5073062;28;20385;-69
2022/06/21 03:19:43;;;;;;;;;;;;;;;-142.75;100.00;77487.72;5072704;28;19916;-69
2022/06/21 03:22:17;;;;;;;;;;;;;;;-142.75;100.00;77475.91;5072964;28;20369;-69
2022/06/21 03:24:42;;;;;;;;;;;;;;;-142.75;100.00;77473.94;5072864;28;19919;-70
2022/06/21 03:27:15;;;;;;;;;;;;;;;-142.75;100.00;77470.00;5071643;28;19927;-70
2022/06/21 03:29:40;;;;;;;;;;;;;;;-142.75;100.00;77464.09;5072439;28;19975;-69
2022/06/21 03:32:05;;;;;;;;;;;;;;;-142.75;100.00;77456.22;5071382;28;19920;-70
2022/06/21 03:34:30;;;;;;;;;;;;;;;-142.75;100.00;77452.25;5072957;28;19912;-70
2022/06/21 03:36:58;;;;;;;;;;;;;;;-142.75;100.00;77448.34;5072790;28;19920;-69
2022/06/21 03:41:43;;;;;;;;;;;;;;;-142.75;100.00;77440.44;5072421;28;19913;-69
2022/06/21 03:42:13;;;;;;;;;;;;;;;-142.75;100.00;77434.53;5072346;28;19912;-70
2022/06/21 03:44:44;;;;;;;;;;;;;;;-142.75;100.00;77422.72;5072629;28;19966;-69
2022/06/21 03:47:13;;;;;;;;;;;;;;;-142.75;100.00;77408.94;5072565;28;19913;-70
2022/06/21 03:49:38;;;;;;;;;;;;;;;-142.75;100.00;77405.00;5072579;28;20289;-70
2022/06/21 03:52:06;;;;;;;;;;;;;;;-142.75;100.00;77401.06;5071159;28;20123;-70
2022/06/21 03:54:35;;;;;;;;;;;;;;;-142.75;100.00;77395.16;5072502;28;19912;-69
2022/06/21 03:57:05;;;;;;;;;;;;;;;-142.75;100.00;77377.44;5072264;28;19912;-70
2022/06/21 03:59:39;;;;;;;;;;;;;;;-142.75;100.00;77381.38;5071905;28;19935;-70
2022/06/21 04:02:23;;;;;;;;;;;;;;;-142.75;100.00;77375.47;5072342;28;19924;-70
2022/06/21 04:04:49;;;;;;;;;;;;;;;-142.75;100.00;77385.31;5072368;28;19920;-70
2022/06/21 04:07:29;;;;;;;;;;;;;;;-142.75;100.00;77391.22;5072320;28;19913;-70
2022/06/21 04:10:15;;;;;;;;;;;;;;;-142.75;100.00;77391.22;5072077;28;20354;-69
2022/06/21 04:12:52;;;;;;;;;;;;;;;-142.75;100.00;77381.38;5051071;28;19916;-70
2022/06/21 04:15:24;;;;;;;;;;;;;;;-142.75;100.00;77391.22;5072249;28;20377;-70
2022/06/21 04:17:55;;;;;;;;;;;;;;;-142.75;100.00;77385.31;5071116;28;20305;-70
2022/06/21 04:20:24;;;;;;;;;;;;;;;-142.75;100.00;77385.31;5072122;28;19916;-70
2022/06/21 04:22:58;;;;;;;;;;;;;;;-142.75;100.00;77375.47;5072174;28;19912;-70
2022/06/21 04:25:29;;;;;;;;;;;;;;;-142.75;100.00;77377.44;5072169;28;19912;-70
2022/06/21 04:27:59;;;;;;;;;;;;;;;-142.75;100.00;77375.47;5071841;28;19943;-68
2022/06/21 04:30:25;;;;;;;;;;;;;;;-142.75;100.00;77373.50;5072039;28;19912;-70
2022/06/21 04:32:50;;;;;;;;;;;;;;;-142.75;100.00;77373.50;5071910;28;20337;-69
2022/06/21 04:35:26;;;;;;;;;;;;;;;-142.75;100.00;77373.50;5072040;28;19916;-69
2022/06/21 04:37:59;;;;;;;;;;;;;;;-142.75;100.00;77361.69;5071836;28;19913;-67
2022/06/21 04:40:29;;;;;;;;;;;;;;;-142.75;100.00;77357.75;5071893;28;19913;-69
2022/06/21 04:43:12;;;;;;;;;;;;;;;-142.75;100.00;77342.00;5071957;28;19965;-69
2022/06/21 04:45:44;;;;;;;;;;;;;;;-142.75;100.00;77326.25;5071939;28;20390;-69
2022/06/21 04:48:28;;;;;;;;;;;;;;;-142.75;100.00;77318.38;5071714;28;19982;-70
2022/06/21 04:51:00;;;;;;;;;;;;;;;-142.75;100.00;77302.63;5071600;28;20298;-67
2022/06/21 04:53:51;;;;;;;;;;;;;;;-142.75;100.00;77296.72;5071859;28;20420;-69
2022/06/21 04:56:23;;;;;;;;;;;;;;;-142.75;100.00;77294.75;5069586;28;19983;-69
2022/06/21 04:58:49;;;;;;;;;;;;;;;-142.75;100.00;77296.72;5071486;28;20443;-70
2022/06/21 05:01:30;;;;;;;;;;;;;;;-142.75;100.00;77302.63;5071722;28;19916;-70
2022/06/21 05:03:57;;;;;;;;;;;;;;;-142.75;100.00;77296.72;5071984;28;19917;-69
2022/06/21 05:06:23;;;;;;;;;;;;;;;-142.75;100.00;77294.75;5071825;28;19913;-70
2022/06/21 05:08:49;;;;;;;;;;;;;;;-142.75;100.00;77292.78;5071490;28;19999;-69
2022/06/21 05:11:14;;;;;;;;;;;;;;;-142.75;100.00;77284.91;5074544;28;20361;-70
2022/06/21 05:13:42;;;;;;;;;;;;;;;-142.75;100.00;77267.19;4985585;28;19964;-68
2022/06/21 05:16:18;;;;;;;;;;;;;;;-142.75;100.00;77245.53;5040378;28;19966;-70
2022/06/21 05:18:46;;;;;;;;;;;;;;;-142.75;100.00;77227.81;5023092;28;19918;-69
2022/06/21 05:21:13;;;;;;;;;;;;;;;-142.75;100.00;77212.06;5044975;28;19919;-68
2022/06/21 05:23:39;;;;;;;;;;;;;;;-142.75;100.00;77200.25;5075219;28;19919;-69
2022/06/21 05:26:07;;;;;;;;;;;;;;;-142.75;100.00;77194.34;5075233;28;20368;-70
2022/06/21 05:28:35;;;;;;;;;;;;;;;-142.75;100.00;77180.56;5073549;28;19913;-69
2022/06/21 05:31:03;;;;;;;;;;;;;;;-142.75;100.00;77168.75;5033754;28;19958;-70
2022/06/21 05:33:46;;;;;;;;;;;;;;;-142.75;100.00;77160.88;4972386;28;19921;-68
2022/06/21 05:36:17;;;;;;;;;;;;;;;-142.75;100.00;77151.03;4972145;28;19921;-67
2022/06/21 05:38:49;;;;;;;;;;;;;;;-142.75;100.00;77133.31;4972027;28;20268;-69
2022/06/21 05:41:31;;;;;;;;;;;;;;;-142.75;100.00;77137.25;4972020;28;19961;-67
2022/06/21 05:44:14;;;;;;;;;;;;;;;-142.75;100.00;77137.25;4972202;28;19914;-67
2022/06/21 05:46:45;;;;;;;;;;;;;;;-142.75;100.00;77125.44;4972015;28;19914;-68
2022/06/21 05:49:27;;;;;;;;;;;;;;;-142.75;100.00;77133.31;4971511;28;20384;-69
2022/06/21 05:51:55;;;;;;;;;;;;;;;-142.75;100.00;77133.31;4970596;28;19922;-69
2022/06/21 05:54:23;;;;;;;;;;;;;;;-142.75;100.00;77123.47;4971945;28;19972;-68
2022/06/21 05:56:49;;;;;;;;;;;;;;;-142.75;100.00;77133.31;4971938;28;19920;-68
2022/06/21 05:59:16;;;;;;;;;;;;;;;-142.75;100.00;77123.47;4971744;28;20291;-68
2022/06/21 06:01:45;;;;;;;;;;;;;;;-142.75;100.00;77115.59;4971707;28;19922;-67
2022/06/21 06:04:17;;;;;;;;;;;;;;;-142.75;100.00;77113.63;4970283;28;19918;-68
2022/06/21 06:06:44;;;;;;;;;;;;;;;-142.75;100.00;77101.81;4971669;28;19920;-69
2022/06/21 06:09:19;;;;;;;;;;;;;;;-142.75;100.00;77086.06;4971387;28;20342;-68
2022/06/21 06:12:00;;;;;;;;;;;;;;;-142.75;100.00;77080.16;4969292;28;20015;-68
2022/06/21 06:14:39;;;;;;;;;;;;;;;-142.75;100.00;77068.34;5032495;28;20446;-68
2022/06/21 06:17:11;;;;;;;;;;;;;;;-142.75;100.00;77070.31;5029802;28;20415;-67
2022/06/21 06:19:40;;;;;;;;;;;;;;;-142.75;100.00;77082.13;5035577;28;19921;-69
2022/06/21 06:22:05;;;;;;;;;;;;;;;-142.75;100.00;77088.03;4963532;28;19919;-68
2022/06/21 06:24:34;;;;;;;;;;;;;;;-142.75;100.00;77082.13;5031450;28;20261;-68
2022/06/21 06:27:02;;;;;;;;;;;;;;;-142.75;100.00;77076.22;5040145;28;19912;-68
2022/06/21 06:29:27;;;;;;;;;;;;;;;-142.75;100.00;77060.47;5073085;28;19908;-69
2022/06/21 06:31:55;;;;;;;;;;;;;;;-142.75;100.00;77054.56;5073886;28;20377;-69
2022/06/21 06:34:23;;;;;;;;;;;;;;;-142.75;100.00;77030.94;5074176;28;19908;-69
2022/06/21 06:36:53;;;;;;;;;;;;;;;-142.75;100.00;77017.16;5072956;28;19916;-69
2022/06/21 06:39:23;;;;;;;;;;;;;;;-142.75;100.00;77009.28;5072434;28;20421;-70
2022/06/21 06:41:49;;;;;;;;;;;;;;;-142.75;100.00;77003.38;5072460;28;19908;-69
2022/06/21 06:44:15;;;;;;;;;;;;;;;-142.75;100.00;76975.81;5072556;28;20289;-69
2022/06/21 06:46:48;;;;;;;;;;;;;;;-142.75;100.00;76973.84;5072584;28;19939;-69
2022/06/21 06:49:19;;;;;;;;;;;;;;;-142.75;100.00;76969.91;5073571;28;19923;-69
2022/06/21 06:51:57;;;;;;;;;;;;;;;-142.75;100.00;76971.88;5072151;28;19979;-69
2022/06/21 06:54:30;;;;;;;;;;;;;;;-142.75;100.00;76979.75;5073527;28;19909;-69
2022/06/21 06:57:01;;;;;;;;;;;;;;;-142.75;100.00;76956.13;5072854;28;19919;-69
2022/06/21 06:59:26;;;;;;;;;;;;;;;-142.75;100.00;76940.38;5073272;28;19915;-69
2022/06/21 07:01:58;;;;;;;;;;;;;;;-142.75;100.00;76944.31;5073369;28;20289;-69
2022/06/21 07:04:27;;;;;;;;;;;;;;;-142.75;100.00;76940.38;5073432;28;20350;-69
2022/06/21 07:06:56;;;;;;;;;;;;;;;-142.75;100.00;76922.66;5073432;28;20365;-69
2022/06/21 07:09:36;;;;;;;;;;;;;;;-142.75;100.00;76904.94;5073134;28;19909;-69
2022/06/21 07:12:28;;;;;;;;;;;;;;;-142.75;100.00;76895.09;5073309;28;19912;-70
2022/06/21 07:14:54;;;;;;;;;;;;;;;-142.75;100.00;76875.41;5070177;28;19908;-69
2022/06/21 07:17:28;;;;;;;;;;;;;;;-142.75;100.00;76865.56;5071911;28;19915;-69
2022/06/21 07:19:54;;;;;;;;;;;;;;;-142.75;100.00;76859.66;5071476;28;19916;-69
2022/06/21 07:22:21;;;;;;;;;;;;;;;-142.75;100.00;76857.69;5071736;28;19944;-69
2022/06/21 07:24:52;;;;;;;;;;;;;;;-142.75;100.00;76847.84;5071768;28;19909;-69
2022/06/21 07:27:19;;;;;;;;;;;;;;;-142.75;100.00;76838.00;5072948;28;19948;-69
2022/06/21 07:29:51;;;;;;;;;;;;;;;-142.75;100.00;76822.25;5072684;28;19923;-69
2022/06/21 07:32:20;;;;;;;;;;;;;;;-142.75;100.00;76802.56;5072223;28;20336;-69
2022/06/21 07:34:48;;;;;;;;;;;;;;;-142.75;100.00;76782.91;5071604;28;19912;-69
2022/06/21 07:37:16;;;;;;;;;;;;;;;-142.75;100.00;76775.03;5072867;28;19916;-69
2022/06/21 07:39:48;;;;;;;;;;;;;;;-142.75;100.00;76767.16;5072434;28;19922;-69
2022/06/21 07:42:15;;;;;;;;;;;;;;;-142.75;100.00;76741.56;5072755;28;20286;-69
2022/06/21 07:44:46;;;;;;;;;;;;;;;-142.75;100.00;76723.84;5072919;28;19908;-69
2022/06/21 07:47:23;;;;;;;;;;;;;;;-142.75;100.00;76706.13;5072680;28;19913;-69
2022/06/21 07:49:52;;;;;;;;;;;;;;;-142.75;100.00;76676.59;5072408;28;19969;-69
2022/06/21 07:52:17;;;;;;;;;;;;;;;-142.75;100.00;76652.97;5072343;28;19951;-69
2022/06/21 07:54:51;;;;;;;;;;;;;;;-142.75;100.00;76643.13;5072524;28;20317;-69
2022/06/21 07:57:20;;;;;;;;;;;;;;;-142.75;100.00;76623.44;5071347;28;20381;-69
2022/06/21 07:59:49;;;;;;;;;;;;;;;-142.75;100.00;76599.81;5072243;28;19913;-69
2022/06/21 08:08:01;;;;;;;;;;;;;;;-142.75;100.00;76530.91;5072128;28;19915;-69
2022/06/21 08:10:48;;;;;;;;;;;;;;;-142.75;100.00;76538.78;5072309;28;19955;-69
2022/06/21 08:13:14;;;;;;;;;;;;;;;-142.75;100.00;76515.19;5072354;28;19923;-69
2022/06/21 08:15:42;;;;;;;;;;;;;;;-142.75;100.00;76467.94;5071099;28;20421;-69
2022/06/21 08:18:16;;;;;;;;;;;;;;;-142.75;100.00;76452.19;5072102;28;19908;-69
2022/06/21 08:20:45;;;;;;;;;;;;;;;-142.75;100.00;76464.00;5072271;28;19916;-69
2022/06/21 08:23:15;;;;;;;;;;;;;;;-142.75;100.00;76475.81;5072252;28;19920;-69
2022/06/21 08:25:48;;;;;;;;;;;;;;;-142.75;100.00;76444.31;5072216;28;19982;-69
2022/06/21 08:28:18;;;;;;;;;;;;;;;-142.75;100.00;76420.69;5072124;28;19912;-69
2022/06/21 08:30:49;;;;;;;;;;;;;;;-142.75;100.00;76410.84;5072468;28;20320;-69
2022/06/21 08:33:17;;;;;;;;;;;;;;;-142.75;100.00;76418.72;5072156;28;19913;-70
2022/06/21 08:35:50;;;;;;;;;;;;;;;-142.75;100.00;76408.88;5072180;28;20286;-69
2022/06/21 08:38:30;;;;;;;;;;;;;;;-142.75;100.00;76397.06;5070487;28;19909;-69
2022/06/21 08:40:59;;;;;;;;;;;;;;;-142.75;100.00;76379.34;5070742;28;20335;-69
2022/06/21 08:43:30;;;;;;;;;;;;;;;-142.75;100.00;76385.25;5072115;28;20301;-69
2022/06/21 08:46:10;;;;;;;;;;;;;;;-142.75;100.00;76389.19;5076144;28;19916;-69
2022/06/21 08:48:44;;;;;;;;;;;;;;;-142.75;100.00;76402.97;5075761;28;20003;-69
2022/06/21 08:51:18;;;;;;;;;;;;;;;-142.75;100.00;76393.13;5075799;28;20396;-69
2022/06/21 08:54:02;;;;;;;;;;;;;;;-142.75;100.00;76401.00;5075946;28;19913;-70
2022/06/21 08:56:34;;;;;;;;;;;;;;;-142.75;100.00;76406.91;5075920;28;19915;-69
2022/06/21 08:58:59;;;;;;;;;;;;;;;-142.75;100.00;76385.25;5074274;28;19913;-69
2022/06/21 09:01:33;;;;;;;;;;;;;;;-142.75;100.00;76391.16;5075790;28;20003;-69
2022/06/21 09:03:58;;;;;;;;;;;;;;;-142.75;100.00;76389.19;5075769;28;19908;-69
2022/06/21 09:06:30;;;;;;;;;;;;;;;-142.75;100.00;76399.03;5074402;28;20046;-69
2022/06/21 09:09:04;;;;;;;;;;;;;;;-142.75;100.00;76385.25;5075441;28;19912;-68
2022/06/21 09:11:38;;;;;;;;;;;;;;;-142.75;100.00;76365.56;5075188;28;19920;-69
2022/06/21 09:14:24;;;;;;;;;;;;;;;-142.75;100.00;76330.16;5075566;28;20366;-69
2022/06/21 09:16:55;;;;;;;;;;;;;;;-142.75;100.00;76298.66;5075750;28;19952;-70
2022/06/21 09:19:35;;;;;;;;;;;;;;;-142.75;100.00;76290.78;5073817;28;19909;-69
2022/06/21 09:22:17;;;;;;;;;;;;;;;-142.75;100.00;76286.84;5075403;28;19916;-69
2022/06/21 09:24:54;;;;;;;;;;;;;;;-142.75;100.00;76290.78;5075184;28;19915;-70
2022/06/21 09:27:32;;;;;;;;;;;;;;;-142.75;100.00;76263.22;5075350;28;19909;-70
2022/06/21 09:30:09;;;;;;;;;;;;;;;-142.75;100.00;76263.22;5075051;28;19912;-68
2022/06/21 09:32:43;;;;;;;;;;;;;;;-142.75;100.00;76235.66;5075166;28;19967;-70
2022/06/21 09:35:28;;;;;;;;;;;;;;;-142.75;100.00;76263.22;5075129;28;19908;-70
2022/06/21 09:37:57;;;;;;;;;;;;;;;-142.75;100.00;76192.38;5074923;28;20268;-68
2022/06/21 09:40:30;;;;;;;;;;;;;;;-142.75;100.00;76151.03;5075049;28;19916;-69
2022/06/21 09:42:58;;;;;;;;;;;;;;;-142.75;100.00;76153.00;5075014;28;19974;-70
2022/06/21 09:45:40;;;;;;;;;;;;;;;-142.75;100.00;76172.69;5038405;28;20050;-68
2022/06/21 09:48:21;;;;;;;;;;;;;;;-142.75;100.00;76168.75;5019739;28;19914;-69
2022/06/21 09:51:02;;;;;;;;;;;;;;;-142.75;100.00;76204.16;5012793;28;19957;-70
2022/06/21 09:53:31;;;;;;;;;;;;;;;-142.75;100.00;76243.53;5023223;28;19950;-69
2022/06/21 09:56:02;;;;;;;;;;;;;;;-142.75;100.00;76206.13;5037688;28;19909;-67
2022/06/21 09:58:41;;;;;;;;;;;;;;;-142.75;100.00;76188.44;5031047;28;20297;-69
2022/06/21 10:01:27;;;;;;;;;;;;;;;-142.75;100.00;76176.63;5074765;28;19968;-70
2022/06/21 10:03:52;;;;;;;;;;;;;;;-142.75;100.00;76204.16;5074127;28;20285;-70
2022/06/21 10:06:24;;;;;;;;;;;;;;;-142.75;100.00;76200.25;5073300;28;19915;-67
2022/06/21 10:08:52;;;;;;;;;;;;;;;-142.75;100.00;76188.44;5072109;28;19908;-68
2022/06/21 10:11:17;;;;;;;;;;;;;;;-142.75;100.00;76166.78;5019293;28;20440;-70
2022/06/21 10:13:48;;;;;;;;;;;;;;;-142.75;100.00;76141.19;5074584;28;19908;-69
2022/06/21 10:16:33;;;;;;;;;;;;;;;-142.75;100.00;76135.28;5074628;28;19908;-69
2022/06/21 10:18:58;;;;;;;;;;;;;;;-142.75;100.00;76095.91;5074180;28;19908;-69
2022/06/21 10:21:42;;;;;;;;;;;;;;;-142.75;100.00;76074.25;5074208;28;19998;-69
2022/06/21 10:24:19;;;;;;;;;;;;;;;-142.75;100.00;76027.03;5074253;28;19909;-70
2022/06/21 10:27:05;;;;;;;;;;;;;;;-142.75;100.00;75991.59;5074357;28;19916;-70
2022/06/21 10:30:00;;;;;;;;;;;;;;;-142.75;100.00;75979.78;5074000;28;20385;-69
2022/06/21 10:32:25;;;;;;;;;;;;;;;-142.75;100.00;75956.19;5034512;22;19918;-66
2022/06/21 10:34:56;;;;;;;;;;;;;;;-142.75;100.00;75920.75;4987170;28;19921;-66
2022/06/21 10:37:37;;;;;;;;;;;;;;;-142.75;100.00;75905.00;4990892;28;19996;-66
2022/06/21 10:40:13;;;;;;;;;;;;;;;-142.75;100.00;75912.88;4991403;28;20004;-66
2022/06/21 10:42:57;;;;;;;;;;;;;;;-142.75;100.00;75936.50;4991535;28;20355;-66
2022/06/21 10:45:32;;;;;;;;;;;;;;;-142.75;100.00;75914.84;4991566;28;19909;-66
2022/06/21 10:48:16;;;;;;;;;;;;;;;-142.75;100.00;75930.59;4973828;28;19910;-66
2022/06/21 10:50:41;;;;;;;;;;;;;;;-142.75;100.00;75958.16;4991464;28;19914;-66
2022/06/21 10:53:09;;;;;;;;;;;;;;;-142.75;100.00;75991.59;4991280;28;19929;-66
2022/06/21 10:55:42;;;;;;;;;;;;;;;-142.75;96.68;76005.38;4991416;28;20009;-66
2022/06/21 10:58:42;;;;;;;;;;;;;;;-142.75;92.39;76038.84;4991092;28;19963;-66
2022/06/21 11:01:18;;;;;;;;;;;;;;;-142.75;97.74;76054.59;5011671;28;19945;-66
2022/06/21 11:03:58;;;;;;;;;;;;;;;-142.75;97.57;76064.44;4994208;28;19910;-66
2022/06/21 11:06:44;;;;;;;;;;;;;;;-142.75;100.00;76121.50;4991420;28;19957;-66
2022/06/21 11:09:24;;;;;;;;;;;;;;;-142.75;100.00;76090.00;4990958;28;19922;-66
2022/06/21 11:12:52;;;;;;;;;;;;;;;-142.75;100.00;76086.06;4991089;28;19914;-67
2022/06/21 11:15:01;;;;;;;;;;;;;;;-142.75;100.00;76086.06;4991026;28;19949;-66
2022/06/21 11:17:32;;;;;;;;;;;;;;;-142.75;98.69;76101.81;4991180;28;19938;-66
2022/06/21 11:20:03;;;;;;;;;;;;;;;-142.75;99.71;76093.94;4990877;28;19914;-66
2022/06/21 11:22:37;;;;;;;;;;;;;;;-142.75;100.00;76088.03;4991079;28;19910;-66
2022/06/21 11:25:16;;;;;;;;;;;;;;;-142.75;100.00;76113.63;4991078;28;19910;-66
2022/06/21 11:27:48;;;;;;;;;;;;;;;-142.75;100.00;76125.44;4991434;28;19920;-65
2022/06/21 11:30:18;;;;;;;;;;;;;;;-142.75;100.00;76145.13;4990916;28;19948;-66
2022/06/21 11:32:50;;;;;;;;;;;;;;;-142.75;100.00;76164.81;4973175;28;19918;-66
2022/06/21 11:35:33;;;;;;;;;;;;;;;-142.75;100.00;76174.66;4990969;28;20393;-66
2022/06/21 11:38:25;;;;;;;;;;;;;;;-142.75;100.00;76202.19;4990698;28;20379;-66
2022/06/21 11:40:50;;;;;;;;;;;;;;;-142.75;100.00;76176.63;4991611;28;19909;-66
2022/06/21 11:43:18;;;;;;;;;;;;;;;-142.75;100.00;76170.72;4990707;28;19954;-66
2022/06/21 11:45:49;;;;;;;;;;;;;;;-142.75;100.00;76154.97;4990703;28;20380;-66
2022/06/21 11:48:21;;;;;;;;;;;;;;;-142.75;100.00;76135.28;4990415;28;20410;-66
2022/06/21 11:50:52;;;;;;;;;;;;;;;-142.75;100.00;76115.59;4990705;28;19918;-68
2022/06/21 11:53:20;;;;;;;;;;;;;;;-142.75;100.00;76123.47;4990606;28;19930;-66
2022/06/21 11:55:47;;;;;;;;;;;;;;;-142.75;100.00;76133.31;4990526;28;19914;-66
2022/06/21 11:58:31;;;;;;;;;;;;;;;-142.75;100.00;76137.25;4990285;28;19936;-66
2022/06/21 12:01:14;;;;;;;;;;;;;;;-142.75;100.00;76145.13;4990637;28;19910;-66
2022/06/21 12:04:00;;;;;;;;;;;;;;;-142.75;100.00;76133.31;4990437;28;19910;-66
2022/06/21 12:06:48;;;;;;;;;;;;;;;-142.75;100.00;76113.63;4990428;28;19910;-66
2022/06/21 12:09:32;;;;;;;;;;;;;;;-142.75;100.00;76117.56;4990182;28;20397;-66
2022/06/21 12:12:07;;;;;;;;;;;;;;;-142.75;100.00;76101.81;4990719;28;19936;-67
2022/06/21 12:14:44;;;;;;;;;;;;;;;-142.75;100.00;76109.69;4990554;28;19909;-67
2022/06/21 12:17:16;;;;;;;;;;;;;;;-142.75;100.00;76093.94;4990412;28;19914;-67
2022/06/21 12:19:44;;;;;;;;;;;;;;;-142.75;100.00;76095.91;4972203;28;19920;-66
2022/06/21 12:22:21;;;;;;;;;;;;;;;-142.75;100.00;76070.34;4990307;28;19909;-67
2022/06/21 12:24:47;;;;;;;;;;;;;;;-142.75;100.00;76074.25;4990372;28;19914;-67
2022/06/21 12:27:13;;;;;;;;;;;;;;;-142.75;97.97;76101.81;4990269;28;20317;-67
2022/06/21 12:29:38;;;;;;;;;;;;;;;-142.75;100.00;76115.59;4989891;28;19910;-66
2022/06/21 12:32:06;;;;;;;;;;;;;;;-142.75;100.00;76119.53;4990092;28;19968;-67
2022/06/21 12:34:40;;;;;;;;;;;;;;;-142.75;100.00;76113.63;4989903;28;19914;-66
2022/06/21 12:37:17;;;;;;;;;;;;;;;-142.75;100.00;76099.84;4990183;28;20004;-67
2022/06/21 12:39:42;;;;;;;;;;;;;;;-142.75;100.00;76121.50;4989792;28;19910;-67
2022/06/21 12:42:25;;;;;;;;;;;;;;;-142.75;100.00;76135.28;4990051;28;20363;-67
2022/06/21 12:44:57;;;;;;;;;;;;;;;-142.75;100.00;76131.34;4972643;28;19910;-67
2022/06/21 12:47:37;;;;;;;;;;;;;;;-142.75;100.00;76143.16;4990084;28;19962;-67